createdAt,value
2019-05-17T00:01:54.202Z,42.95
2019-05-17T00:04:24.237Z,42.59
2019-05-17T00:06:56.861Z,42.72
2019-05-17T00:09:26.749Z,42.57
2019-05-17T00:11:56.976Z,42.55
2019-05-17T00:14:27.228Z,42.55
2019-05-17T00:16:57.455Z,42.40
2019-05-17T00:19:27.460Z,42.16
2019-05-17T00:21:57.490Z,42.36
2019-05-17T00:24:27.538Z,42.21
2019-05-17T00:26:58.621Z,42.41
2019-05-17T00:29:28.737Z,42.58
2019-05-17T00:31:58.794Z,42.87
2019-05-17T00:34:28.822Z,43.34
2019-05-17T00:36:58.937Z,43.34
2019-05-17T00:39:28.993Z,43.37
2019-05-17T00:41:59.014Z,43.24
2019-05-17T00:44:29.036Z,43.20
2019-05-17T00:46:59.065Z,43.00
2019-05-17T00:49:29.100Z,43.00
2019-05-17T00:51:59.144Z,43.07
2019-05-17T00:54:29.168Z,43.07
2019-05-17T00:56:59.229Z,42.68
2019-05-17T00:59:29.259Z,42.50
2019-05-17T01:01:59.310Z,42.45
2019-05-17T01:04:29.334Z,42.34
2019-05-17T01:06:59.374Z,42.18
2019-05-17T01:09:29.490Z,42.00
2019-05-17T01:11:59.546Z,41.77
2019-05-17T01:14:29.557Z,41.77
2019-05-17T01:16:59.619Z,41.75
2019-05-17T01:19:29.652Z,41.89
2019-05-17T01:21:59.701Z,41.89
2019-05-17T01:24:29.735Z,41.87
2019-05-17T01:26:59.766Z,42.02
2019-05-17T01:29:29.806Z,42.01
2019-05-17T01:31:59.832Z,42.04
2019-05-17T01:34:29.890Z,42.00
2019-05-17T01:36:59.919Z,41.97
2019-05-17T01:39:29.976Z,41.98
2019-05-17T01:42:00.001Z,41.88
2019-05-17T01:44:30.046Z,41.93
2019-05-17T01:47:00.113Z,41.92
2019-05-17T01:49:30.128Z,41.89
2019-05-17T01:52:00.183Z,41.91
2019-05-17T01:54:30.196Z,41.89
2019-05-17T01:57:00.259Z,42.00
2019-05-17T01:59:30.325Z,42.69
2019-05-17T02:02:04.178Z,42.69
2019-05-17T02:04:34.258Z,42.91
2019-05-17T02:07:06.713Z,43.25
2019-05-17T02:09:40.656Z,43.63
2019-05-17T02:12:08.753Z,43.08
2019-05-17T02:14:38.758Z,43.08
2019-05-17T02:17:08.825Z,43.24
2019-05-17T02:19:38.925Z,43.76
2019-05-17T02:22:09.084Z,44.06
2019-05-17T02:24:39.121Z,44.84
2019-05-17T02:27:09.179Z,44.84
2019-05-17T02:29:39.202Z,45.27
2019-05-17T02:32:12.595Z,45.27
2019-05-17T02:34:42.990Z,45.11
2019-05-17T02:37:13.668Z,45.09
2019-05-17T02:39:58.058Z,45.12
2019-05-17T02:42:15.524Z,44.94
2019-05-17T02:44:45.557Z,44.85
2019-05-17T02:47:15.606Z,44.64
2019-05-17T02:49:45.641Z,44.94
2019-05-17T02:52:15.692Z,45.31
2019-05-17T02:54:45.747Z,45.28
2019-05-17T02:57:15.772Z,45.34
2019-05-17T02:59:45.861Z,45.20
2019-05-17T03:02:15.898Z,45.12
2019-05-17T03:04:45.942Z,45.02
2019-05-17T03:07:15.961Z,45.14
2019-05-17T03:09:46.826Z,44.75
2019-05-17T03:12:16.870Z,44.95
2019-05-17T03:14:46.946Z,44.83
2019-05-17T03:17:16.971Z,45.26
2019-05-17T03:19:47.029Z,46.42
2019-05-17T03:22:17.076Z,47.02
2019-05-17T03:24:47.111Z,47.45
2019-05-17T03:27:17.161Z,48.20
2019-05-17T03:29:47.191Z,48.76
2019-05-17T03:32:17.978Z,49.29
2019-05-17T03:34:48.213Z,49.66
2019-05-17T03:37:18.251Z,49.91
2019-05-17T03:39:48.273Z,50.48
2019-05-17T03:42:18.352Z,50.45
2019-05-17T03:44:48.381Z,50.60
2019-05-17T03:47:18.445Z,50.12
2019-05-17T03:49:48.492Z,49.81
2019-05-17T03:52:22.249Z,50.29
2019-05-17T03:54:53.130Z,50.12
2019-05-17T03:57:23.917Z,49.79
2019-05-17T03:59:54.227Z,49.24
2019-05-17T04:02:24.266Z,49.54
2019-05-17T04:04:54.311Z,50.66
2019-05-17T04:07:24.405Z,51.09
2019-05-17T04:09:54.479Z,51.50
2019-05-17T04:12:24.617Z,51.76
2019-05-17T04:14:54.636Z,51.89
2019-05-17T04:17:24.686Z,52.04
2019-05-17T04:19:54.722Z,52.08
2019-05-17T04:22:24.781Z,52.22
2019-05-17T04:24:54.814Z,52.20
2019-05-17T04:27:27.972Z,52.26
2019-05-17T04:29:57.992Z,52.23
2019-05-17T04:32:28.064Z,52.24
2019-05-17T04:34:58.069Z,52.18
2019-05-17T04:37:28.151Z,52.14
2019-05-17T04:40:03.589Z,52.21
2019-05-17T04:42:33.228Z,52.17
2019-05-17T04:45:03.923Z,52.17
2019-05-17T04:47:34.002Z,52.02
2019-05-17T04:50:04.321Z,51.98
2019-05-17T04:52:34.465Z,51.96
2019-05-17T04:55:04.562Z,51.96
2019-05-17T04:57:34.591Z,51.89
2019-05-17T05:00:05.079Z,51.72
2019-05-17T05:02:35.093Z,51.42
2019-05-17T05:05:05.215Z,51.11
2019-05-17T05:07:35.238Z,50.80
2019-05-17T05:10:05.687Z,50.77
2019-05-17T05:12:35.716Z,50.88
2019-05-17T05:15:05.917Z,50.78
2019-05-17T05:17:35.957Z,50.77
2019-05-17T05:20:06.494Z,50.81
2019-05-17T05:22:36.533Z,50.70
2019-05-17T05:25:06.569Z,50.61
2019-05-17T05:27:36.617Z,50.56
2019-05-17T05:30:08.071Z,50.50
2019-05-17T05:32:38.121Z,50.55
2019-05-17T05:35:08.169Z,50.31
2019-05-17T05:37:38.217Z,49.97
2019-05-17T05:40:08.258Z,49.82
2019-05-17T05:42:38.300Z,49.63
2019-05-17T05:45:08.352Z,49.21
2019-05-17T05:47:38.394Z,49.28
2019-05-17T05:50:08.489Z,49.11
2019-05-17T05:52:38.517Z,48.96
2019-05-17T05:55:08.884Z,48.92
2019-05-17T05:57:38.924Z,48.66
2019-05-17T06:00:08.997Z,48.66
2019-05-17T06:02:41.714Z,48.60
2019-05-17T06:05:14.789Z,48.47
2019-05-17T06:07:42.577Z,48.29
2019-05-17T06:10:13.263Z,48.00
2019-05-17T06:12:43.783Z,47.96
2019-05-17T06:15:13.813Z,47.97
2019-05-17T06:17:43.848Z,47.56
2019-05-17T06:20:13.889Z,47.67
2019-05-17T06:22:43.928Z,47.65
2019-05-17T06:25:15.699Z,48.19
2019-05-17T06:27:47.898Z,48.19
2019-05-17T06:30:17.935Z,48.25
2019-05-17T06:32:48.042Z,48.21
2019-05-17T06:35:18.099Z,48.48
2019-05-17T06:37:48.123Z,48.70
2019-05-17T06:40:18.166Z,48.60
2019-05-17T06:42:48.191Z,48.78
2019-05-17T06:45:18.273Z,48.78
2019-05-17T06:47:48.310Z,48.35
2019-05-17T06:50:18.337Z,48.40
2019-05-17T06:52:48.398Z,48.04
2019-05-17T06:55:18.437Z,47.88
2019-05-17T06:57:48.483Z,47.70
2019-05-17T07:00:23.507Z,47.81
2019-05-17T07:02:50.285Z,48.16
2019-05-17T07:05:24.248Z,48.50
2019-05-17T07:07:54.303Z,48.49
2019-05-17T07:10:24.344Z,48.37
2019-05-17T07:12:58.752Z,48.06
2019-05-17T07:15:26.107Z,48.00
2019-05-17T07:17:56.176Z,47.83
2019-05-17T07:20:26.193Z,46.78
2019-05-17T07:22:56.245Z,46.92
2019-05-17T07:25:26.275Z,47.17
2019-05-17T07:27:56.327Z,47.19
2019-05-17T07:30:26.364Z,47.19
2019-05-17T07:32:56.476Z,46.12
2019-05-17T07:35:26.540Z,46.24
2019-05-17T07:37:56.762Z,46.67
2019-05-17T07:40:26.797Z,47.35
2019-05-17T07:43:07.899Z,47.75
2019-05-17T07:45:29.550Z,47.78
2019-05-17T07:48:00.642Z,47.78
2019-05-17T07:50:30.740Z,47.95
2019-05-17T07:53:00.897Z,48.18
2019-05-17T07:55:30.986Z,48.18
2019-05-17T07:58:01.022Z,48.72
2019-05-17T08:00:31.030Z,48.78
2019-05-17T08:03:01.080Z,48.98
2019-05-17T08:05:31.179Z,48.92
2019-05-17T08:08:01.216Z,48.98
2019-05-17T08:10:31.293Z,48.95
2019-05-17T08:13:01.341Z,49.26
2019-05-17T08:15:31.382Z,49.26
2019-05-17T08:18:01.918Z,49.47
2019-05-17T08:20:35.981Z,49.08
2019-05-17T08:23:06.018Z,49.21
2019-05-17T08:25:49.574Z,49.34
2019-05-17T08:28:10.834Z,48.91
2019-05-17T08:30:40.846Z,49.19
2019-05-17T08:33:11.367Z,49.11
2019-05-17T08:35:41.352Z,49.24
2019-05-17T08:38:11.397Z,49.20
2019-05-17T08:40:41.426Z,48.97
2019-05-17T08:43:13.863Z,48.68
2019-05-17T08:45:43.888Z,48.36
2019-05-17T08:48:13.925Z,48.22
2019-05-17T08:50:43.973Z,48.23
2019-05-17T08:53:13.997Z,48.65
2019-05-17T08:55:44.047Z,48.79
2019-05-17T08:58:14.069Z,49.01
2019-05-17T09:00:44.097Z,49.45
2019-05-17T09:03:14.152Z,49.74
2019-05-17T09:05:44.178Z,50.39
2019-05-17T09:08:14.261Z,50.98
2019-05-17T09:10:44.318Z,51.32
2019-05-17T09:13:15.343Z,51.50
2019-05-17T09:15:45.367Z,51.10
2019-05-17T09:18:15.426Z,51.37
2019-05-17T09:20:45.523Z,51.56
2019-05-17T09:23:15.554Z,51.87
2019-05-17T09:25:45.593Z,52.07
2019-05-17T09:28:15.841Z,52.40
2019-05-17T09:30:45.869Z,52.75
2019-05-17T09:33:15.913Z,53.98
2019-05-17T09:35:45.970Z,53.98
2019-05-17T09:38:15.985Z,54.39
2019-05-17T09:40:46.037Z,54.16
2019-05-17T09:43:18.313Z,54.24
2019-05-17T09:45:50.762Z,54.80
2019-05-17T09:48:21.116Z,54.80
2019-05-17T09:50:51.150Z,55.21
2019-05-17T09:53:21.162Z,54.77
2019-05-17T09:55:51.206Z,54.43
2019-05-17T09:58:21.750Z,54.51
2019-05-17T10:00:51.878Z,54.76
2019-05-17T10:03:23.844Z,54.86
2019-05-17T10:05:53.657Z,54.47
2019-05-17T10:08:23.690Z,54.47
2019-05-17T10:11:04.834Z,54.88
2019-05-17T10:13:26.443Z,54.83
2019-05-17T10:15:56.502Z,54.79
2019-05-17T10:18:26.532Z,55.55
2019-05-17T10:20:56.567Z,55.55
2019-05-17T10:23:26.664Z,55.31
2019-05-17T10:25:56.691Z,54.59
2019-05-17T10:28:26.788Z,54.55
2019-05-17T10:30:56.825Z,54.55
2019-05-17T10:33:26.849Z,54.87
2019-05-17T10:35:56.897Z,54.62
2019-05-17T10:38:26.983Z,54.88
2019-05-17T10:40:57.023Z,54.76
2019-05-17T10:43:27.059Z,54.24
2019-05-17T10:45:57.099Z,54.19
2019-05-17T10:48:27.128Z,54.70
2019-05-17T10:50:57.143Z,54.54
2019-05-17T10:53:29.583Z,54.49
2019-05-17T10:56:00.669Z,54.79
2019-05-17T10:58:30.902Z,54.35
2019-05-17T11:01:01.077Z,53.85
2019-05-17T11:03:32.146Z,53.50
2019-05-17T11:06:02.164Z,53.49
2019-05-17T11:08:32.273Z,53.25
2019-05-17T11:11:02.299Z,53.36
2019-05-17T11:13:32.362Z,53.33
2019-05-17T11:16:02.386Z,53.30
2019-05-17T11:18:32.498Z,53.03
2019-05-17T11:21:02.518Z,53.03
2019-05-17T11:23:32.605Z,53.22
2019-05-17T11:26:02.627Z,53.19
2019-05-17T11:28:32.667Z,53.20
2019-05-17T11:31:02.683Z,53.78
2019-05-17T11:33:32.730Z,54.08
2019-05-17T11:36:02.754Z,54.04
2019-05-17T11:38:32.846Z,54.09
2019-05-17T11:41:19.953Z,54.20
2019-05-17T11:43:34.673Z,54.64
2019-05-17T11:46:04.669Z,54.64
2019-05-17T11:48:34.823Z,54.77
2019-05-17T11:51:04.860Z,54.40
2019-05-17T11:53:34.903Z,54.59
2019-05-17T11:56:04.928Z,54.65
2019-05-17T11:58:35.047Z,54.65
2019-05-17T12:01:05.100Z,54.00
2019-05-17T12:03:35.150Z,54.00
2019-05-17T12:06:06.138Z,54.37
2019-05-17T12:08:36.193Z,54.31
2019-05-17T12:11:06.201Z,53.24
2019-05-17T12:13:36.251Z,52.97
2019-05-17T12:16:06.276Z,53.14
2019-05-17T12:18:36.315Z,53.21
2019-05-17T12:21:06.339Z,53.16
2019-05-17T12:23:36.381Z,53.54
2019-05-17T12:26:06.416Z,53.29
2019-05-17T12:28:36.441Z,53.61
2019-05-17T12:31:06.481Z,53.43
2019-05-17T12:33:36.496Z,53.44
2019-05-17T12:36:06.549Z,53.67
2019-05-17T12:38:36.625Z,54.19
2019-05-17T12:41:06.657Z,54.36
2019-05-17T12:43:36.714Z,54.22
2019-05-17T12:46:06.801Z,53.97
2019-05-17T12:48:36.840Z,54.04
2019-05-17T12:51:06.853Z,53.55
2019-05-17T12:53:36.904Z,53.89
2019-05-17T12:56:06.934Z,53.71
2019-05-17T12:58:36.978Z,53.50
2019-05-17T13:01:08.090Z,53.43
2019-05-17T13:03:39.112Z,52.96
2019-05-17T13:06:09.120Z,53.07
2019-05-17T13:08:39.570Z,53.21
2019-05-17T13:11:09.619Z,52.91
2019-05-17T13:13:39.642Z,53.22
2019-05-17T13:16:18.025Z,53.21
2019-05-17T13:18:41.413Z,53.46
2019-05-17T13:21:11.516Z,53.17
2019-05-17T13:23:41.581Z,53.29
2019-05-17T13:26:11.610Z,53.33
2019-05-17T13:28:41.664Z,53.03
2019-05-17T13:31:11.736Z,53.00
2019-05-17T13:33:41.836Z,52.92
2019-05-17T13:36:11.879Z,52.61
2019-05-17T13:38:41.954Z,51.90
2019-05-17T13:41:11.983Z,52.00
2019-05-17T13:43:42.148Z,52.25
2019-05-17T13:46:12.278Z,52.05
2019-05-17T13:48:42.374Z,51.79
2019-05-17T13:51:12.451Z,51.89
2019-05-17T13:53:42.561Z,52.03
2019-05-17T13:56:12.586Z,52.14
2019-05-17T13:58:42.633Z,52.05
2019-05-17T14:01:12.648Z,52.36
2019-05-17T14:03:42.696Z,52.46
2019-05-17T14:06:12.710Z,52.35
2019-05-17T14:08:42.763Z,52.35
2019-05-17T14:11:12.797Z,51.96
2019-05-17T14:13:42.837Z,52.06
2019-05-17T14:16:12.857Z,51.98
2019-05-17T14:18:42.906Z,52.49
2019-05-17T14:21:12.942Z,52.51
2019-05-17T14:23:42.974Z,52.69
2019-05-17T14:26:13.025Z,52.58
2019-05-17T14:28:43.039Z,52.42
2019-05-17T14:31:13.084Z,52.55
2019-05-17T14:33:43.119Z,52.73
2019-05-17T14:36:13.140Z,52.21
2019-05-17T14:38:43.237Z,52.63
2019-05-17T14:41:14.255Z,52.75
2019-05-17T14:43:44.280Z,52.41
2019-05-17T14:46:14.291Z,52.09
2019-05-17T14:48:44.330Z,51.91
2019-05-17T14:51:14.394Z,52.24
2019-05-17T14:53:44.416Z,52.41
2019-05-17T14:56:14.470Z,52.52
2019-05-17T14:58:44.569Z,52.29
2019-05-17T15:01:14.600Z,52.11
2019-05-17T15:03:44.635Z,52.08
2019-05-17T15:06:14.655Z,51.97
2019-05-17T15:08:44.694Z,51.53
2019-05-17T15:11:14.713Z,51.59
2019-05-17T15:13:44.757Z,51.55
2019-05-17T15:16:14.780Z,52.18
2019-05-17T15:18:44.809Z,51.88
2019-05-17T15:21:14.870Z,51.81
2019-05-17T15:23:44.878Z,51.33
2019-05-17T15:26:14.915Z,51.16
2019-05-17T15:28:44.937Z,51.68
2019-05-17T15:31:14.977Z,51.82
2019-05-17T15:33:45.026Z,52.03
2019-05-17T15:36:15.047Z,51.90
2019-05-17T15:38:45.153Z,51.04
2019-05-17T15:41:15.241Z,51.36
2019-05-17T15:43:45.365Z,51.22
2019-05-17T15:46:15.397Z,51.10
2019-05-17T15:48:45.450Z,51.29
2019-05-17T15:51:15.478Z,51.28
2019-05-17T15:53:45.524Z,50.94
2019-05-17T15:56:15.558Z,51.17
2019-05-17T15:58:45.597Z,51.65
2019-05-17T16:01:15.612Z,51.52
2019-05-17T16:03:45.674Z,51.20
2019-05-17T16:06:15.706Z,51.25
2019-05-17T16:08:45.720Z,51.73
2019-05-17T16:11:15.735Z,51.66
2019-05-17T16:13:45.773Z,51.66
2019-05-17T16:16:15.802Z,51.56
2019-05-17T16:18:45.841Z,51.93
2019-05-17T16:21:15.880Z,51.79
2019-05-17T16:23:45.909Z,51.47
2019-05-17T16:26:15.957Z,51.67
2019-05-17T16:28:46.018Z,51.66
2019-05-17T16:31:16.029Z,51.83
2019-05-17T16:33:46.083Z,51.54
2019-05-17T16:36:16.119Z,51.72
2019-05-17T16:38:46.217Z,52.14
2019-05-17T16:41:16.206Z,52.05
2019-05-17T16:43:46.250Z,52.03
2019-05-17T16:46:16.261Z,51.97
2019-05-17T16:48:46.304Z,52.02
2019-05-17T16:51:16.319Z,52.20
2019-05-17T16:53:46.381Z,52.14
2019-05-17T16:56:16.383Z,51.98
2019-05-17T16:58:46.443Z,51.92
2019-05-17T17:01:16.469Z,51.93
2019-05-17T17:03:46.644Z,52.09
2019-05-17T17:06:16.665Z,51.93
2019-05-17T17:08:46.797Z,51.94
2019-05-17T17:11:16.830Z,51.83
2019-05-17T17:13:46.871Z,51.50
2019-05-17T17:16:16.901Z,51.53
2019-05-17T17:18:46.928Z,51.77
2019-05-17T17:21:17.040Z,51.72
2019-05-17T17:23:47.064Z,51.85
2019-05-17T17:26:17.077Z,51.93
2019-05-17T17:28:47.128Z,51.82
2019-05-17T17:31:17.150Z,51.66
2019-05-17T17:33:47.201Z,51.42
2019-05-17T17:36:19.423Z,51.04
2019-05-17T17:38:49.101Z,51.31
2019-05-17T17:41:19.113Z,51.24
2019-05-17T17:43:57.878Z,51.24
2019-05-17T17:46:21.766Z,51.24
2019-05-17T17:48:51.826Z,51.13
2019-05-17T17:51:21.912Z,50.73
2019-05-17T17:53:51.969Z,50.88
2019-05-17T17:56:22.973Z,50.83
2019-05-17T17:58:53.036Z,50.55
2019-05-17T18:01:23.057Z,50.42
2019-05-17T18:03:53.100Z,50.63
2019-05-17T18:06:23.216Z,50.70
2019-05-17T18:08:53.255Z,50.83
2019-05-17T18:11:23.280Z,50.65
2019-05-17T18:13:53.342Z,50.51
2019-05-17T18:16:23.366Z,50.38
2019-05-17T18:18:53.405Z,50.47
2019-05-17T18:21:23.436Z,50.67
2019-05-17T18:23:53.496Z,50.58
2019-05-17T18:26:23.539Z,50.89
2019-05-17T18:28:53.576Z,51.31
2019-05-17T18:31:23.600Z,51.37
2019-05-17T18:33:53.627Z,51.45
2019-05-17T18:36:23.694Z,51.74
2019-05-17T18:38:53.753Z,51.94
2019-05-17T18:41:23.796Z,51.96
2019-05-17T18:43:53.819Z,52.09
2019-05-17T18:46:23.861Z,52.38
2019-05-17T18:48:53.885Z,52.84
2019-05-17T18:51:23.944Z,52.98
2019-05-17T18:53:53.971Z,53.10
2019-05-17T18:56:24.006Z,53.27
2019-05-17T18:58:54.045Z,53.45
2019-05-17T19:01:24.101Z,53.41
2019-05-17T19:03:54.129Z,53.30
2019-05-17T19:06:24.178Z,53.14
2019-05-17T19:08:54.229Z,53.04
2019-05-17T19:11:24.252Z,53.19
2019-05-17T19:13:55.263Z,53.33
2019-05-17T19:16:25.291Z,53.65
2019-05-17T19:18:55.334Z,53.74
2019-05-17T19:21:25.372Z,53.79
2019-05-17T19:23:55.466Z,53.74
2019-05-17T19:26:25.518Z,53.54
2019-05-17T19:28:55.574Z,53.46
2019-05-17T19:31:25.588Z,53.63
2019-05-17T19:33:55.605Z,53.64
2019-05-17T19:36:25.660Z,53.71
2019-05-17T19:38:55.734Z,53.90
2019-05-17T19:41:25.784Z,54.37
2019-05-17T19:43:55.809Z,54.60
2019-05-17T19:46:25.869Z,54.70
2019-05-17T19:48:55.949Z,54.99
2019-05-17T19:51:26.013Z,55.29
2019-05-17T19:53:56.020Z,55.33
2019-05-17T19:56:26.049Z,55.30
2019-05-17T19:58:56.107Z,55.38
2019-05-17T20:01:26.134Z,55.55
2019-05-17T20:03:56.241Z,55.64
2019-05-17T20:06:26.299Z,55.74
2019-05-17T20:08:56.327Z,55.89
2019-05-17T20:11:33.905Z,56.10
2019-05-17T20:13:59.176Z,56.45
2019-05-17T20:16:29.174Z,56.72
2019-05-17T20:18:59.203Z,56.83
2019-05-17T20:21:29.242Z,56.87
2019-05-17T20:23:59.284Z,56.94
2019-05-17T20:26:29.330Z,56.88
2019-05-17T20:28:59.352Z,56.88
2019-05-17T20:31:29.401Z,56.46
2019-05-17T20:33:59.455Z,56.36
2019-05-17T20:36:29.478Z,56.25
2019-05-17T20:38:59.613Z,56.14
2019-05-17T20:41:29.676Z,56.14
2019-05-17T20:43:59.710Z,55.99
2019-05-17T20:46:30.692Z,55.94
2019-05-17T20:49:00.788Z,55.94
2019-05-17T20:51:30.820Z,55.96
2019-05-17T20:54:00.873Z,56.06
2019-05-17T20:56:33.348Z,56.12
2019-05-17T20:59:05.807Z,56.27
2019-05-17T21:01:35.850Z,56.54
2019-05-17T21:04:06.842Z,56.52
2019-05-17T21:06:37.031Z,56.98
2019-05-17T21:09:07.804Z,57.12
2019-05-17T21:11:37.858Z,57.18
2019-05-17T21:14:07.899Z,57.29
2019-05-17T21:16:38.010Z,57.54
2019-05-17T21:19:08.054Z,57.84
2019-05-17T21:21:38.113Z,58.02
2019-05-17T21:24:08.154Z,58.27
2019-05-17T21:26:38.268Z,58.49
2019-05-17T21:29:08.259Z,58.71
2019-05-17T21:31:38.318Z,58.87
2019-05-17T21:34:08.376Z,59.09
2019-05-17T21:36:38.433Z,59.07
2019-05-17T21:39:08.492Z,59.18
2019-05-17T21:41:38.556Z,59.10
2019-05-17T21:44:08.576Z,59.19
2019-05-17T21:46:38.604Z,58.75
2019-05-17T21:49:08.643Z,58.66
2019-05-17T21:51:38.677Z,58.75
2019-05-17T21:54:08.701Z,58.75
2019-05-17T21:56:38.761Z,58.54
2019-05-17T21:59:08.786Z,58.34
2019-05-17T22:01:38.821Z,58.23
2019-05-17T22:04:08.842Z,58.06
2019-05-17T22:06:38.877Z,57.90
2019-05-17T22:09:09.019Z,57.90
2019-05-17T22:11:40.756Z,57.99
2019-05-17T22:14:10.798Z,58.07
2019-05-17T22:16:40.813Z,58.30
2019-05-17T22:19:10.854Z,58.62
2019-05-17T22:21:40.897Z,58.62
2019-05-17T22:24:10.921Z,58.66
2019-05-17T22:26:40.973Z,58.66
2019-05-17T22:29:10.984Z,58.76
2019-05-17T22:31:41.024Z,58.90
2019-05-17T22:34:11.136Z,59.02
2019-05-17T22:36:41.310Z,59.13
2019-05-17T22:39:12.456Z,59.12
2019-05-17T22:41:42.508Z,59.18
2019-05-17T22:44:12.522Z,59.23
2019-05-17T22:46:42.558Z,59.29
2019-05-17T22:49:12.605Z,59.38
2019-05-17T22:51:42.634Z,59.56
2019-05-17T22:54:12.687Z,59.66
2019-05-17T22:56:42.705Z,59.75
2019-05-17T22:59:12.776Z,59.81
2019-05-17T23:01:42.806Z,59.87
2019-05-17T23:04:12.838Z,59.92
2019-05-17T23:06:42.875Z,59.96
2019-05-17T23:09:12.897Z,60.02
2019-05-17T23:11:42.929Z,60.04
2019-05-17T23:14:12.973Z,60.12
2019-05-17T23:16:50.971Z,60.16
2019-05-17T23:19:14.758Z,59.96
2019-05-17T23:21:44.800Z,60.20
2019-05-17T23:24:14.842Z,60.25
2019-05-17T23:26:44.886Z,60.34
2019-05-17T23:29:14.917Z,60.33
2019-05-17T23:31:44.946Z,60.33
2019-05-17T23:34:14.985Z,60.72
2019-05-17T23:36:45.064Z,60.72
2019-05-17T23:39:15.162Z,60.94
2019-05-17T23:41:45.189Z,60.90
2019-05-17T23:44:15.224Z,60.93
2019-05-17T23:46:45.300Z,60.93
2019-05-17T23:49:15.321Z,60.60
2019-05-17T23:51:45.363Z,60.55
2019-05-17T23:54:15.410Z,60.40
2019-05-17T23:56:45.428Z,60.33
2019-05-17T23:59:15.480Z,60.22
